Airfield :
LOGIN :

Register | Disclaimer

   EN    FR    IT 

 










Legend :    VFR   Marginal VFR   IFR   Intensive IFR   Very Intensive IFR
Visi :
Ceiling :
>= 8 km
>= 3000ft
5 to 8 km
1000 to 3000 ft
1500m to 5 km
500 to 1000 ft
800 to 1500m
200 to 500 ft
< 800m
< 200 ft
Symbols :   Thunderstorms  Fog  Heavy snow  Heavy precipitations  Wind > 20 kt
SIGMETs :     Misc.  Thunderstorms  Icing  Turbulence  Mountain Waves  Volcanic Ashes







- Airport Elevation : 74 ft
- IATA code : LRH
- Download approach charts


LFBH - La Rochelle Ile de Ré

CURRENT METAR :
  • 170900Z AUTO 09011KT 0700 0650 R27/0900D FG VV/// 09/09 Q1019 BECMG 9999 NSW OVC008

EXPIRED METARs :
  • 170830Z AUTO 10010KT 070V130 1200 R27/1800N BR VV/// 09/09 Q1019 BECMG 9999 NSW OVC008
  • 170800Z AUTO 09011KT 1100 1000 R27/1400D BR VV/// 09/09 Q1019 BECMG 3000 BR BKN003
  • 170730Z AUTO 10010KT 1300 R27/1700D BR VV/// 09/09 Q1019 BECMG 3000 BR BKN003
  • 170700Z AUTO 10009KT 070V130 1300 R27/1600D BR VV/// 09/09 Q1019 BECMG 3000 BR BKN003
  • 170630Z AUTO 11007KT 1200 R27/1600D BR VV/// 09/09 Q1019 BECMG 3000 BR BKN003

TAF AMD TAF LFBH
Valid from the 17 at 09:00 until the 18 at 06:00 UTC


170910Z 1709/1806 10010KT 0700 FG VV///
BECMG 1709/1711 3000 BR OVC003
BECMG 1711/1713 9999 NSW OVC008
BECMG 1718/1720 OVC030
ATIS : +33 5 46 00 13 92
No reported NOTAMs for that airfield.



MET'MAP, your aeronautical weather chart ! - Copyright ORBIFLY December 2007 - Disclaimer

ORBIFLY MET'MAP TEAM :

Programming & Development : Alexandra Zaïnal
Concept & Development : Baudouin d'Aumeries
Co-Development & Prog : Marc-Olivier Méhu
Technical & hardware support : Manuel Goepfert

Contact : metmap@orbifly.com




SOURCES & CREDITS :

   NOAA